BAW65 EGLL-HKJK
Flight info
| Callsign | BAW65 |
|---|---|
| Flight time | N/A |
| Altitude | 23000 |
| Route | MODMI1J MODMI M185 MID L612 HAWKE/N0484F350 UL612 INPAX/N0486F370 UL612 OGULO DCT OKASI DCT OKEKO DCT MOU DCT MADIV DCT MOKIP DCT TUFTA DCT GEVEA DCT ORSUD DCT BIBAN DCT EKDIR DCT LOMED DCT LUXIL DCT MOKTO DCT LUPAL DCT LATAN DCT TRL UL604 SALUN N705 BOPIX N710 TAKRI P751 AST/N0490F390 P751 LXR M999 JDW G650 RASKA/N0489F400 G650 KONET M308 RUDOL UM308 NAK NAK2Z |
| Aircraft | A35K/H-SDE2E3GHIJ3J4J5LM1ORWXY/LB1D1 |
Departure
| Time | N/A |
|---|---|
| Airport | London Heathrow Airport (EGLL) |
Arrival
| Time | 2026-05-07 16:40 |
|---|---|
| Airport | Jomo Kenyatta International Airport (HKJK) |
| Time | Latitude | Longitude | Altitude | Speed | Heading |
|---|---|---|---|---|---|
| 2026-05-07 14:46 | 12.47036 | 38.86219 | 39878 ft | 483 kts | 184° |
| 2026-05-07 14:46 | 12.40367 | 38.86032 | 39884 ft | 483 kts | 184° |
| 2026-05-07 14:47 | 12.33654 | 38.85844 | 39889 ft | 482 kts | 184° |
| 2026-05-07 14:47 | 12.26941 | 38.85661 | 39887 ft | 483 kts | 184° |
| 2026-05-07 14:48 | 12.20205 | 38.85475 | 39885 ft | 484 kts | 184° |
| 2026-05-07 14:48 | 12.13465 | 38.85286 | 39898 ft | 484 kts | 184° |
| 2026-05-07 14:49 | 12.06720 | 38.85098 | 39897 ft | 484 kts | 184° |
| 2026-05-07 14:49 | 11.99978 | 38.84911 | 39901 ft | 485 kts | 184° |
| 2026-05-07 14:50 | 11.93237 | 38.84725 | 39907 ft | 485 kts | 184° |
| 2026-05-07 14:50 | 11.86484 | 38.84537 | 39886 ft | 485 kts | 184° |
| 2026-05-07 14:51 | 11.79737 | 38.84352 | 39901 ft | 485 kts | 184° |
| 2026-05-07 14:51 | 11.72985 | 38.84167 | 39904 ft | 485 kts | 184° |
| 2026-05-07 14:52 | 11.66301 | 38.83985 | 39900 ft | 482 kts | 185° |
| 2026-05-07 14:52 | 11.59596 | 38.83800 | 39901 ft | 482 kts | 184° |
| 2026-05-07 14:53 | 11.52906 | 38.83615 | 39897 ft | 480 kts | 184° |
| 2026-05-07 14:53 | 11.46224 | 38.83429 | 39894 ft | 481 kts | 184° |
| 2026-05-07 14:54 | 11.39531 | 38.83246 | 39900 ft | 481 kts | 185° |
| 2026-05-07 14:54 | 11.32844 | 38.83060 | 39890 ft | 481 kts | 184° |
| 2026-05-07 14:55 | 11.26141 | 38.82876 | 39893 ft | 481 kts | 185° |
| 2026-05-07 14:55 | 11.19453 | 38.82693 | 39886 ft | 480 kts | 184° |
| 2026-05-07 14:56 | 11.12765 | 38.82509 | 39898 ft | 481 kts | 184° |
| 2026-05-07 14:56 | 11.06118 | 38.82326 | 39897 ft | 480 kts | 184° |
| 2026-05-07 14:57 | 10.99434 | 38.82142 | 39903 ft | 481 kts | 184° |
| 2026-05-07 14:57 | 10.92741 | 38.81959 | 39908 ft | 481 kts | 184° |
| 2026-05-07 14:58 | 10.86047 | 38.81775 | 39905 ft | 481 kts | 184° |
| 2026-05-07 14:58 | 10.79339 | 38.81591 | 39900 ft | 482 kts | 184° |
| 2026-05-07 14:59 | 10.72618 | 38.81409 | 39900 ft | 483 kts | 184° |
| 2026-05-07 14:59 | 10.65901 | 38.81225 | 39877 ft | 483 kts | 184° |
| 2026-05-07 15:00 | 10.59186 | 38.81040 | 39852 ft | 483 kts | 184° |
| 2026-05-07 15:00 | 10.52475 | 38.80856 | 39857 ft | 482 kts | 184° |
| 2026-05-07 15:01 | 10.45805 | 38.80674 | 39837 ft | 482 kts | 184° |
| 2026-05-07 15:01 | 10.39098 | 38.80490 | 39838 ft | 483 kts | 184° |
| 2026-05-07 15:02 | 10.32388 | 38.80307 | 39824 ft | 482 kts | 184° |
| 2026-05-07 15:02 | 10.25681 | 38.80123 | 39826 ft | 483 kts | 183° |
| 2026-05-07 15:03 | 10.18949 | 38.79940 | 39826 ft | 483 kts | 184° |
| 2026-05-07 15:03 | 10.12228 | 38.79756 | 39842 ft | 483 kts | 184° |
| 2026-05-07 15:04 | 10.05500 | 38.79572 | 39843 ft | 483 kts | 184° |
| 2026-05-07 15:04 | 9.98824 | 38.79389 | 39864 ft | 483 kts | 183° |
| 2026-05-07 15:05 | 9.92091 | 38.79206 | 39864 ft | 485 kts | 184° |
| 2026-05-07 15:05 | 9.85349 | 38.79024 | 39884 ft | 484 kts | 184° |
| 2026-05-07 15:06 | 9.78602 | 38.78840 | 39909 ft | 485 kts | 183° |
| 2026-05-07 15:06 | 9.71868 | 38.78657 | 39906 ft | 484 kts | 183° |
| 2026-05-07 15:07 | 9.65124 | 38.78473 | 39933 ft | 486 kts | 183° |
| 2026-05-07 15:07 | 9.58365 | 38.78289 | 39934 ft | 486 kts | 183° |
| 2026-05-07 15:08 | 9.51653 | 38.78106 | 39954 ft | 486 kts | 183° |
| 2026-05-07 15:08 | 9.44890 | 38.77923 | 39956 ft | 486 kts | 183° |
| 2026-05-07 15:09 | 9.38131 | 38.77739 | 39961 ft | 486 kts | 183° |
| 2026-05-07 15:09 | 9.31359 | 38.77556 | 39968 ft | 487 kts | 184° |
| 2026-05-07 15:10 | 9.24597 | 38.77372 | 39971 ft | 486 kts | 183° |
| 2026-05-07 15:10 | 9.17829 | 38.77188 | 39968 ft | 486 kts | 183° |
| 2026-05-07 15:11 | 9.11067 | 38.76859 | 39970 ft | 485 kts | 189° |
| 2026-05-07 15:11 | 9.04471 | 38.75490 | 39956 ft | 484 kts | 195° |
| 2026-05-07 15:12 | 8.97942 | 38.73863 | 39939 ft | 483 kts | 195° |
| 2026-05-07 15:12 | 8.91416 | 38.72196 | 39938 ft | 483 kts | 196° |
| 2026-05-07 15:13 | 8.84890 | 38.70543 | 39930 ft | 484 kts | 196° |
| 2026-05-07 15:13 | 8.78395 | 38.68912 | 39932 ft | 484 kts | 195° |
| 2026-05-07 15:14 | 8.71855 | 38.67275 | 39933 ft | 484 kts | 195° |
| 2026-05-07 15:14 | 8.65315 | 38.65639 | 39933 ft | 484 kts | 195° |
| 2026-05-07 15:15 | 8.58771 | 38.64002 | 39930 ft | 484 kts | 195° |
| 2026-05-07 15:15 | 8.52235 | 38.62366 | 39938 ft | 484 kts | 195° |
| 2026-05-07 15:16 | 8.45703 | 38.60732 | 39938 ft | 483 kts | 195° |
| 2026-05-07 15:16 | 8.39174 | 38.59099 | 39939 ft | 484 kts | 195° |
| 2026-05-07 15:17 | 8.32641 | 38.57466 | 39939 ft | 484 kts | 195° |
| 2026-05-07 15:17 | 8.26098 | 38.55832 | 39934 ft | 484 kts | 196° |
| 2026-05-07 15:18 | 8.19550 | 38.54196 | 39933 ft | 485 kts | 195° |
| 2026-05-07 15:18 | 8.13002 | 38.52567 | 39921 ft | 484 kts | 195° |
| 2026-05-07 15:19 | 8.06491 | 38.50944 | 39904 ft | 485 kts | 195° |
| 2026-05-07 15:19 | 7.99946 | 38.49312 | 39901 ft | 485 kts | 195° |
| 2026-05-07 15:20 | 7.93384 | 38.47678 | 39886 ft | 485 kts | 195° |
| 2026-05-07 15:20 | 7.86816 | 38.46043 | 39904 ft | 486 kts | 195° |
| 2026-05-07 15:21 | 7.80250 | 38.44410 | 39885 ft | 485 kts | 195° |
| 2026-05-07 15:21 | 7.74638 | 38.43014 | 39886 ft | 486 kts | 195° |
| 2026-05-07 15:22 | 7.68078 | 38.41382 | 39880 ft | 485 kts | 194° |
| 2026-05-07 15:22 | 7.61516 | 38.39751 | 39878 ft | 486 kts | 195° |
| 2026-05-07 15:23 | 7.54963 | 38.38122 | 39878 ft | 485 kts | 194° |
| 2026-05-07 15:23 | 7.48448 | 38.36504 | 39887 ft | 485 kts | 195° |
| 2026-05-07 15:24 | 7.41906 | 38.34804 | 39886 ft | 485 kts | 195° |
| 2026-05-07 15:24 | 7.36498 | 38.33307 | 39896 ft | 485 kts | 196° |
| 2026-05-07 15:25 | 7.29992 | 38.31506 | 39900 ft | 485 kts | 195° |
| 2026-05-07 15:25 | 7.23486 | 38.29728 | 39907 ft | 484 kts | 195° |
| 2026-05-07 15:26 | 7.16974 | 38.27959 | 39904 ft | 484 kts | 195° |
| 2026-05-07 15:26 | 7.10467 | 38.26195 | 39911 ft | 483 kts | 195° |
| 2026-05-07 15:27 | 7.04028 | 38.24449 | 39919 ft | 481 kts | 195° |
| 2026-05-07 15:27 | 6.97562 | 38.22695 | 39922 ft | 482 kts | 195° |
| 2026-05-07 15:28 | 6.91090 | 38.20940 | 39927 ft | 481 kts | 195° |
| 2026-05-07 15:28 | 6.84615 | 38.19184 | 39927 ft | 481 kts | 195° |
| 2026-05-07 15:29 | 6.78135 | 38.17428 | 39916 ft | 483 kts | 195° |
| 2026-05-07 15:29 | 6.71655 | 38.15673 | 39914 ft | 482 kts | 196° |
| 2026-05-07 15:30 | 6.65171 | 38.13916 | 39916 ft | 482 kts | 195° |
| 2026-05-07 15:30 | 6.58692 | 38.12162 | 39917 ft | 482 kts | 195° |
| 2026-05-07 15:31 | 6.52251 | 38.10418 | 39923 ft | 482 kts | 195° |
| 2026-05-07 15:31 | 6.45768 | 38.08658 | 39916 ft | 483 kts | 195° |
| 2026-05-07 15:32 | 6.39289 | 38.06886 | 39912 ft | 483 kts | 195° |
| 2026-05-07 15:32 | 6.32804 | 38.05115 | 39927 ft | 483 kts | 195° |
| 2026-05-07 15:33 | 6.26312 | 38.03345 | 39926 ft | 484 kts | 195° |
| 2026-05-07 15:33 | 6.19802 | 38.01571 | 39946 ft | 485 kts | 195° |
| 2026-05-07 15:34 | 6.13281 | 37.99795 | 39927 ft | 486 kts | 195° |
| 2026-05-07 15:34 | 6.06796 | 37.98030 | 39935 ft | 486 kts | 195° |
| 2026-05-07 15:35 | 6.00270 | 37.96253 | 39937 ft | 486 kts | 195° |
| 2026-05-07 15:35 | 5.93739 | 37.94476 | 39942 ft | 487 kts | 195° |
| 2026-05-07 15:36 | 5.87190 | 37.92694 | 39942 ft | 488 kts | 195° |
| 2026-05-07 15:36 | 5.80638 | 37.90911 | 39942 ft | 488 kts | 195° |
| 2026-05-07 15:37 | 5.74083 | 37.89129 | 39934 ft | 488 kts | 195° |
| 2026-05-07 15:37 | 5.67529 | 37.87347 | 39931 ft | 488 kts | 195° |
| 2026-05-07 15:38 | 5.60978 | 37.85566 | 39934 ft | 488 kts | 195° |
| 2026-05-07 15:38 | 5.54431 | 37.83787 | 39936 ft | 488 kts | 195° |
| 2026-05-07 15:39 | 5.47879 | 37.82007 | 39940 ft | 487 kts | 195° |
| 2026-05-07 15:39 | 5.41323 | 37.80226 | 39923 ft | 488 kts | 195° |
| 2026-05-07 15:40 | 5.34811 | 37.78457 | 39923 ft | 488 kts | 195° |
| 2026-05-07 15:40 | 5.28244 | 37.76674 | 39925 ft | 488 kts | 195° |
| 2026-05-07 15:41 | 5.21685 | 37.74894 | 39922 ft | 488 kts | 195° |
| 2026-05-07 15:41 | 5.15122 | 37.73113 | 39920 ft | 488 kts | 195° |
| 2026-05-07 15:42 | 5.08562 | 37.71333 | 39910 ft | 488 kts | 195° |
| 2026-05-07 15:42 | 5.02006 | 37.69555 | 39905 ft | 488 kts | 195° |
| 2026-05-07 15:43 | 4.95443 | 37.67775 | 39908 ft | 488 kts | 195° |
| 2026-05-07 15:43 | 4.88887 | 37.65997 | 39909 ft | 488 kts | 195° |
| 2026-05-07 15:44 | 4.82327 | 37.64219 | 39900 ft | 488 kts | 195° |
| 2026-05-07 15:44 | 4.75765 | 37.62440 | 39901 ft | 489 kts | 195° |
| 2026-05-07 15:45 | 4.69194 | 37.60659 | 39893 ft | 489 kts | 195° |
| 2026-05-07 15:45 | 4.62632 | 37.58881 | 39892 ft | 489 kts | 195° |
| 2026-05-07 15:46 | 4.52815 | 37.56222 | 39881 ft | 489 kts | 195° |
| 2026-05-07 15:47 | 4.46251 | 37.54445 | 39875 ft | 488 kts | 196° |
| 2026-05-07 15:47 | 4.39709 | 37.52673 | 39874 ft | 487 kts | 196° |
| 2026-05-07 15:48 | 4.33161 | 37.50900 | 39856 ft | 487 kts | 196° |
| 2026-05-07 15:48 | 4.26614 | 37.49128 | 39856 ft | 487 kts | 196° |
| 2026-05-07 15:49 | 4.20078 | 37.47359 | 39850 ft | 487 kts | 196° |
| 2026-05-07 15:49 | 4.13523 | 37.45586 | 39838 ft | 487 kts | 196° |
| 2026-05-07 15:50 | 4.07022 | 37.43827 | 39843 ft | 487 kts | 196° |
| 2026-05-07 15:50 | 4.00482 | 37.42058 | 39823 ft | 487 kts | 196° |
| 2026-05-07 15:51 | 3.93963 | 37.40224 | 39812 ft | 486 kts | 197° |
| 2026-05-07 15:51 | 3.87473 | 37.38273 | 39817 ft | 487 kts | 198° |
| 2026-05-07 15:52 | 3.80973 | 37.36320 | 39815 ft | 488 kts | 197° |
| 2026-05-07 15:52 | 3.74471 | 37.34390 | 39804 ft | 487 kts | 197° |
| 2026-05-07 15:53 | 3.67963 | 37.32467 | 39797 ft | 487 kts | 197° |
| 2026-05-07 15:53 | 3.61456 | 37.30547 | 39794 ft | 488 kts | 197° |
| 2026-05-07 15:54 | 3.54945 | 37.28625 | 39803 ft | 488 kts | 197° |
| 2026-05-07 15:54 | 3.48470 | 37.26713 | 39802 ft | 488 kts | 197° |
| 2026-05-07 15:55 | 3.41914 | 37.24777 | 39800 ft | 488 kts | 197° |
| 2026-05-07 15:55 | 3.35434 | 37.22865 | 39793 ft | 488 kts | 197° |
| 2026-05-07 15:56 | 3.28925 | 37.20943 | 39785 ft | 487 kts | 197° |
| 2026-05-07 15:56 | 3.22422 | 37.19024 | 39775 ft | 487 kts | 197° |
| 2026-05-07 15:57 | 3.15917 | 37.17105 | 39783 ft | 487 kts | 197° |
| 2026-05-07 15:57 | 3.09412 | 37.15186 | 39785 ft | 487 kts | 197° |
| 2026-05-07 15:58 | 3.02906 | 37.13267 | 39798 ft | 487 kts | 197° |
| 2026-05-07 15:58 | 2.96394 | 37.11346 | 39798 ft | 488 kts | 197° |
| 2026-05-07 15:59 | 2.89873 | 37.09422 | 39803 ft | 488 kts | 197° |
| 2026-05-07 15:59 | 2.83359 | 37.07501 | 39792 ft | 488 kts | 197° |
| 2026-05-07 16:00 | 2.76883 | 37.05592 | 39805 ft | 488 kts | 197° |
| 2026-05-07 16:00 | 2.70361 | 37.03669 | 39801 ft | 488 kts | 197° |
| 2026-05-07 16:01 | 2.63845 | 37.01748 | 39809 ft | 488 kts | 197° |
| 2026-05-07 16:01 | 2.57325 | 36.99827 | 39810 ft | 488 kts | 197° |
| 2026-05-07 16:02 | 2.50801 | 36.97904 | 39820 ft | 488 kts | 198° |
| 2026-05-07 16:02 | 2.44290 | 36.95986 | 39811 ft | 488 kts | 197° |
| 2026-05-07 16:03 | 2.37770 | 36.94064 | 39828 ft | 488 kts | 197° |
| 2026-05-07 16:03 | 2.31285 | 36.92154 | 39843 ft | 489 kts | 197° |
| 2026-05-07 16:04 | 2.24760 | 36.90231 | 39840 ft | 489 kts | 197° |
| 2026-05-07 16:04 | 2.18234 | 36.88309 | 39854 ft | 489 kts | 197° |
| 2026-05-07 16:05 | 2.11710 | 36.86388 | 39852 ft | 489 kts | 197° |
| 2026-05-07 16:05 | 2.05181 | 36.84464 | 39852 ft | 489 kts | 197° |
| 2026-05-07 16:06 | 1.98645 | 36.82540 | 39856 ft | 489 kts | 197° |
| 2026-05-07 16:06 | 1.92115 | 36.80617 | 39862 ft | 489 kts | 198° |
| 2026-05-07 16:07 | 1.85619 | 36.78704 | 39863 ft | 489 kts | 197° |
| 2026-05-07 16:07 | 1.79077 | 36.76778 | 39857 ft | 490 kts | 197° |
| 2026-05-07 16:08 | 1.72531 | 36.74851 | 39872 ft | 490 kts | 197° |
| 2026-05-07 16:08 | 1.65993 | 36.72926 | 39861 ft | 490 kts | 197° |
| 2026-05-07 16:09 | 1.59448 | 36.71000 | 39858 ft | 490 kts | 198° |
| 2026-05-07 16:09 | 1.52901 | 36.69073 | 39879 ft | 490 kts | 198° |
| 2026-05-07 16:10 | 1.46390 | 36.67156 | 39902 ft | 491 kts | 197° |
| 2026-05-07 16:10 | 1.39832 | 36.65226 | 39900 ft | 491 kts | 197° |
| 2026-05-07 16:11 | 1.33266 | 36.63294 | 39903 ft | 491 kts | 197° |
| 2026-05-07 16:11 | 1.26698 | 36.61361 | 39902 ft | 491 kts | 197° |
| 2026-05-07 16:12 | 1.20141 | 36.59431 | 39912 ft | 491 kts | 197° |
| 2026-05-07 16:12 | 1.13630 | 36.57516 | 39927 ft | 491 kts | 197° |
| 2026-05-07 16:13 | 1.07080 | 36.55589 | 39928 ft | 490 kts | 197° |
| 2026-05-07 16:13 | 1.00535 | 36.53663 | 39922 ft | 490 kts | 197° |
| 2026-05-07 16:14 | 0.93973 | 36.51748 | 39936 ft | 490 kts | 197° |
| 2026-05-07 16:14 | 0.87420 | 36.49842 | 39943 ft | 489 kts | 197° |
| 2026-05-07 16:15 | 0.81994 | 36.48263 | 39958 ft | 488 kts | 197° |
| 2026-05-07 16:15 | 0.74416 | 36.46057 | 39960 ft | 488 kts | 197° |
| 2026-05-07 16:16 | 0.67893 | 36.44159 | 39944 ft | 488 kts | 197° |
| 2026-05-07 16:16 | 0.61372 | 36.42261 | 39980 ft | 488 kts | 197° |
| 2026-05-07 16:17 | 0.54850 | 36.40363 | 39984 ft | 487 kts | 197° |
| 2026-05-07 16:17 | 0.48339 | 36.38468 | 39991 ft | 487 kts | 197° |
| 2026-05-07 16:18 | 0.41826 | 36.36572 | 39992 ft | 487 kts | 197° |
| 2026-05-07 16:18 | 0.36414 | 36.34997 | 40005 ft | 487 kts | 197° |
| 2026-05-07 16:19 | 0.28846 | 36.32794 | 40008 ft | 487 kts | 197° |
| 2026-05-07 16:19 | 0.23380 | 36.31204 | 40029 ft | 489 kts | 197° |
| 2026-05-07 16:20 | 0.16849 | 36.29303 | 40027 ft | 489 kts | 197° |
| 2026-05-07 16:20 | 0.10312 | 36.27401 | 39939 ft | 489 kts | 197° |
| 2026-05-07 16:20 | 0.07047 | 36.26451 | 39706 ft | 489 kts | 197° |
| 2026-05-07 16:21 | 0.03774 | 36.25498 | 39480 ft | 490 kts | 197° |
| 2026-05-07 16:21 | 0.00544 | 36.24558 | 39236 ft | 491 kts | 197° |
| 2026-05-07 16:21 | -0.02726 | 36.23607 | 38857 ft | 486 kts | 197° |
| 2026-05-07 16:21 | -0.05964 | 36.22665 | 38204 ft | 485 kts | 197° |
| 2026-05-07 16:22 | -0.09201 | 36.21723 | 37541 ft | 483 kts | 197° |
| 2026-05-07 16:22 | -0.12423 | 36.20785 | 36893 ft | 482 kts | 197° |
| 2026-05-07 16:22 | -0.15644 | 36.19847 | 36228 ft | 481 kts | 197° |
| 2026-05-07 16:22 | -0.18859 | 36.18911 | 35552 ft | 481 kts | 197° |
| 2026-05-07 16:23 | -0.22075 | 36.17975 | 34857 ft | 482 kts | 197° |
| 2026-05-07 16:23 | -0.25316 | 36.17040 | 34082 ft | 485 kts | 195° |
| 2026-05-07 16:23 | -0.28648 | 36.16436 | 33095 ft | 490 kts | 183° |
| 2026-05-07 16:23 | -0.32059 | 36.16628 | 32188 ft | 492 kts | 168° |
| 2026-05-07 16:24 | -0.35294 | 36.17620 | 31332 ft | 494 kts | 157° |
| 2026-05-07 16:24 | -0.38453 | 36.18985 | 30572 ft | 494 kts | 155° |
| 2026-05-07 16:24 | -0.41583 | 36.20390 | 29926 ft | 491 kts | 155° |
| 2026-05-07 16:24 | -0.44691 | 36.21771 | 29239 ft | 488 kts | 156° |
| 2026-05-07 16:25 | -0.47885 | 36.22957 | 28272 ft | 491 kts | 162° |
| 2026-05-07 16:25 | -0.51175 | 36.23874 | 27496 ft | 489 kts | 165° |
| 2026-05-07 16:25 | -0.54460 | 36.24695 | 26822 ft | 486 kts | 166° |
| 2026-05-07 16:25 | -0.57728 | 36.25504 | 26207 ft | 480 kts | 166° |
| 2026-05-07 16:26 | -0.60957 | 36.26302 | 25599 ft | 475 kts | 166° |
| 2026-05-07 16:26 | -0.64152 | 36.27097 | 24996 ft | 471 kts | 166° |
| 2026-05-07 16:26 | -0.67250 | 36.28081 | 24574 ft | 466 kts | 158° |
| 2026-05-07 16:26 | -0.70211 | 36.29384 | 24248 ft | 461 kts | 154° |
| 2026-05-07 16:27 | -0.73054 | 36.30743 | 23744 ft | 456 kts | 154° |
| 2026-05-07 16:27 | -0.75893 | 36.32131 | 23080 ft | 452 kts | 153° |
| 2026-05-07 16:27 | -0.78701 | 36.33514 | 22464 ft | 447 kts | 153° |
| 2026-05-07 16:27 | -0.81469 | 36.34884 | 21885 ft | 442 kts | 153° |
| 2026-05-07 16:28 | -0.84221 | 36.36248 | 21292 ft | 438 kts | 153° |
| 2026-05-07 16:28 | -0.86933 | 36.37593 | 20693 ft | 434 kts | 153° |
| 2026-05-07 16:28 | -0.89625 | 36.38930 | 20100 ft | 430 kts | 153° |
| 2026-05-07 16:28 | -0.92295 | 36.40256 | 19489 ft | 426 kts | 153° |
| 2026-05-07 16:29 | -0.94936 | 36.41568 | 18905 ft | 422 kts | 153° |
| 2026-05-07 16:29 | -0.97554 | 36.42868 | 18285 ft | 419 kts | 153° |
| 2026-05-07 16:29 | -1.00157 | 36.44160 | 17625 ft | 414 kts | 152° |
| 2026-05-07 16:29 | -1.02719 | 36.45434 | 17022 ft | 409 kts | 153° |
| 2026-05-07 16:30 | -1.05252 | 36.46692 | 16437 ft | 405 kts | 153° |
| 2026-05-07 16:30 | -1.07765 | 36.47941 | 15838 ft | 401 kts | 153° |
| 2026-05-07 16:30 | -1.10261 | 36.49180 | 15347 ft | 400 kts | 152° |
| 2026-05-07 16:30 | -1.12741 | 36.50413 | 14674 ft | 396 kts | 152° |
| 2026-05-07 16:31 | -1.15169 | 36.51620 | 14057 ft | 392 kts | 153° |
| 2026-05-07 16:31 | -1.17596 | 36.52826 | 13418 ft | 387 kts | 153° |
| 2026-05-07 16:31 | -1.19995 | 36.54017 | 12824 ft | 382 kts | 152° |
| 2026-05-07 16:31 | -1.22358 | 36.55191 | 12251 ft | 376 kts | 153° |
| 2026-05-07 16:32 | -1.24688 | 36.56349 | 11696 ft | 372 kts | 153° |
| 2026-05-07 16:32 | -1.26997 | 36.57496 | 11127 ft | 369 kts | 152° |
| 2026-05-07 16:32 | -1.29266 | 36.58623 | 10810 ft | 356 kts | 152° |
| 2026-05-07 16:32 | -1.31425 | 36.59695 | 10685 ft | 337 kts | 152° |
| 2026-05-07 16:33 | -1.33470 | 36.60710 | 10565 ft | 320 kts | 152° |
| 2026-05-07 16:33 | -1.35411 | 36.61675 | 10429 ft | 304 kts | 152° |
| 2026-05-07 16:33 | -1.37261 | 36.62596 | 10322 ft | 289 kts | 152° |
| 2026-05-07 16:33 | -1.38916 | 36.63665 | 10184 ft | 282 kts | 136° |
| 2026-05-07 16:34 | -1.40072 | 36.65255 | 10130 ft | 285 kts | 113° |
| 2026-05-07 16:34 | -1.40739 | 36.67108 | 9615 ft | 285 kts | 106° |
| 2026-05-07 16:34 | -1.41280 | 36.68984 | 9203 ft | 283 kts | 105° |
| 2026-05-07 16:34 | -1.41816 | 36.70864 | 8984 ft | 272 kts | 106° |
| 2026-05-07 16:35 | -1.42330 | 36.72614 | 8841 ft | 260 kts | 106° |
| 2026-05-07 16:35 | -1.42833 | 36.74310 | 8690 ft | 249 kts | 107° |
| 2026-05-07 16:35 | -1.43172 | 36.75966 | 8526 ft | 239 kts | 93° |
| 2026-05-07 16:35 | -1.42897 | 36.77554 | 8353 ft | 229 kts | 67° |
| 2026-05-07 16:36 | -1.42081 | 36.78864 | 8216 ft | 217 kts | 53° |
| 2026-05-07 16:36 | -1.41179 | 36.80018 | 8066 ft | 204 kts | 56° |
| 2026-05-07 16:36 | -1.40368 | 36.81136 | 7907 ft | 195 kts | 57° |
| 2026-05-07 16:36 | -1.39594 | 36.82225 | 7655 ft | 190 kts | 57° |
| 2026-05-07 16:37 | -1.38827 | 36.83279 | 7409 ft | 185 kts | 57° |
| 2026-05-07 16:37 | -1.38086 | 36.84296 | 7178 ft | 177 kts | 56° |
| 2026-05-07 16:37 | -1.37385 | 36.85260 | 6980 ft | 165 kts | 56° |
| 2026-05-07 16:37 | -1.36733 | 36.86157 | 6766 ft | 154 kts | 56° |
| 2026-05-07 16:38 | -1.36118 | 36.87003 | 6578 ft | 148 kts | 57° |
| 2026-05-07 16:38 | -1.35514 | 36.87833 | 6350 ft | 147 kts | 57° |
| 2026-05-07 16:38 | -1.34918 | 36.88652 | 6138 ft | 146 kts | 56° |
| 2026-05-07 16:38 | -1.34317 | 36.89477 | 5919 ft | 147 kts | 55° |
| 2026-05-07 16:39 | -1.33717 | 36.90307 | 5722 ft | 146 kts | 56° |
| 2026-05-07 16:39 | -1.33132 | 36.91128 | 5528 ft | 143 kts | 56° |
| 2026-05-07 16:39 | -1.32543 | 36.91932 | 5350 ft | 143 kts | 56° |
| 2026-05-07 16:39 | -1.32020 | 36.92650 | 5316 ft | 102 kts | 54° |
| 2026-05-07 16:40 | -1.31713 | 36.93068 | 5309 ft | 46 kts | 54° |
| 2026-05-07 16:40 | -1.31595 | 36.93228 | 5309 ft | 22 kts | 53° |
| 2026-05-07 16:40 | -1.31560 | 36.93296 | 5308 ft | 9 kts | 89° |
| 2026-05-07 16:40 | -1.31592 | 36.93344 | 5306 ft | 9 kts | 137° |
| 2026-05-07 16:41 | -1.31651 | 36.93390 | 5305 ft | 12 kts | 142° |
| 2026-05-07 16:41 | -1.31723 | 36.93443 | 5306 ft | 13 kts | 145° |
| 2026-05-07 16:41 | -1.31780 | 36.93481 | 5311 ft | 8 kts | 155° |
| 2026-05-07 16:41 | -1.31832 | 36.93462 | 5316 ft | 9 kts | 225° |
| 2026-05-07 16:42 | -1.31876 | 36.93402 | 5308 ft | 12 kts | 234° |
| 2026-05-07 16:42 | -1.31925 | 36.93332 | 5311 ft | 13 kts | 234° |
| 2026-05-07 16:42 | -1.31980 | 36.93257 | 5311 ft | 14 kts | 233° |
| 2026-05-07 16:42 | -1.32041 | 36.93176 | 5312 ft | 16 kts | 233° |
| 2026-05-07 16:43 | -1.32100 | 36.93095 | 5316 ft | 16 kts | 234° |
| 2026-05-07 16:43 | -1.32167 | 36.93004 | 5319 ft | 16 kts | 234° |
| 2026-05-07 16:43 | -1.32237 | 36.92908 | 5320 ft | 18 kts | 234° |
| 2026-05-07 16:43 | -1.32314 | 36.92801 | 5332 ft | 19 kts | 234° |
| 2026-05-07 16:44 | -1.32397 | 36.92689 | 5336 ft | 21 kts | 234° |
| 2026-05-07 16:44 | -1.32487 | 36.92566 | 5335 ft | 23 kts | 234° |
| 2026-05-07 16:44 | -1.32587 | 36.92429 | 5336 ft | 24 kts | 233° |
| 2026-05-07 16:44 | -1.32664 | 36.92324 | 5336 ft | 13 kts | 234° |
| 2026-05-07 16:45 | -1.32710 | 36.92262 | 5337 ft | 12 kts | 234° |
| 2026-05-07 16:45 | -1.32760 | 36.92199 | 5338 ft | 9 kts | 215° |
| 2026-05-07 16:45 | -1.32814 | 36.92222 | 5335 ft | 10 kts | 147° |
| 2026-05-07 16:45 | -1.32870 | 36.92256 | 5336 ft | 6 kts | 160° |
| 2026-05-07 16:46 | -1.32919 | 36.92247 | 5334 ft | 9 kts | 200° |
| 2026-05-07 16:46 | -1.32998 | 36.92222 | 5333 ft | 13 kts | 192° |
| 2026-05-07 16:46 | -1.33097 | 36.92220 | 5332 ft | 14 kts | 172° |
| 2026-05-07 16:46 | -1.33169 | 36.92242 | 5334 ft | 9 kts | 155° |
| 2026-05-07 16:47 | -1.33197 | 36.92260 | 5335 ft | 4 kts | 133° |
| 2026-05-07 16:47 | -1.33198 | 36.92283 | 5335 ft | 4 kts | 76° |
| 2026-05-07 16:47 | -1.33182 | 36.92312 | 5332 ft | 4 kts | 58° |
| 2026-05-07 16:47 | -1.33170 | 36.92330 | 5335 ft | 3 kts | 58° |
| 2026-05-07 16:48 | -1.33169 | 36.92333 | 5336 ft | 0 kts | 58° |